sensor_id;sensor_type;location;lat;lon;timestamp;P1;durP1;ratioP1;P2;durP2;ratioP2
23338;SDS011;11841;49.368;20.962;2023-05-02T00:00:24;4.53;;;2.80;;
23338;SDS011;11841;49.368;20.962;2023-05-02T00:03:09;6.78;;;3.20;;
23338;SDS011;11841;49.368;20.962;2023-05-02T00:05:55;5.03;;;2.70;;
23338;SDS011;11841;49.368;20.962;2023-05-02T00:08:41;6.05;;;2.80;;
23338;SDS011;11841;49.368;20.962;2023-05-02T00:11:26;5.80;;;3.20;;
23338;SDS011;11841;49.368;20.962;2023-05-02T00:14:12;5.65;;;3.30;;
23338;SDS011;11841;49.368;20.962;2023-05-02T00:16:57;8.00;;;3.17;;
23338;SDS011;11841;49.368;20.962;2023-05-02T00:19:42;4.63;;;2.97;;
23338;SDS011;11841;49.368;20.962;2023-05-02T00:22:27;6.20;;;2.65;;
23338;SDS011;11841;49.368;20.962;2023-05-02T00:25:13;7.75;;;3.13;;
23338;SDS011;11841;49.368;20.962;2023-05-02T00:28:00;9.13;;;2.88;;
23338;SDS011;11841;49.368;20.962;2023-05-02T00:30:45;6.65;;;2.97;;
23338;SDS011;11841;49.368;20.962;2023-05-02T00:33:31;5.65;;;2.80;;
23338;SDS011;11841;49.368;20.962;2023-05-02T00:36:17;4.45;;;2.50;;
23338;SDS011;11841;49.368;20.962;2023-05-02T00:39:03;5.78;;;2.70;;
23338;SDS011;11841;49.368;20.962;2023-05-02T00:41:55;4.70;;;2.88;;
23338;SDS011;11841;49.368;20.962;2023-05-02T00:44:40;4.25;;;2.72;;
23338;SDS011;11841;49.368;20.962;2023-05-02T00:47:25;5.15;;;3.15;;
23338;SDS011;11841;49.368;20.962;2023-05-02T00:50:11;13.10;;;3.67;;
23338;SDS011;11841;49.368;20.962;2023-05-02T00:52:56;5.93;;;3.08;;
23338;SDS011;11841;49.368;20.962;2023-05-02T00:55:44;6.72;;;3.15;;
23338;SDS011;11841;49.368;20.962;2023-05-02T00:58:30;4.90;;;3.30;;
23338;SDS011;11841;49.368;20.962;2023-05-02T01:04:48;8.82;;;3.45;;
23338;SDS011;11841;49.368;20.962;2023-05-02T01:11:41;5.53;;;2.97;;
23338;SDS011;11841;49.368;20.962;2023-05-02T01:13:58;6.80;;;3.10;;
23338;SDS011;11841;49.368;20.962;2023-05-02T01:16:48;6.72;;;3.83;;
23338;SDS011;11841;49.368;20.962;2023-05-02T01:19:35;6.00;;;2.88;;
23338;SDS011;11841;49.368;20.962;2023-05-02T01:22:28;4.60;;;3.00;;
23338;SDS011;11841;49.368;20.962;2023-05-02T01:28:20;5.93;;;3.10;;
23338;SDS011;11841;49.368;20.962;2023-05-02T01:31:08;6.82;;;3.47;;
23338;SDS011;11841;49.368;20.962;2023-05-02T01:33:56;5.13;;;2.85;;
23338;SDS011;11841;49.368;20.962;2023-05-02T01:36:44;6.28;;;3.17;;
23338;SDS011;11841;49.368;20.962;2023-05-02T01:39:31;3.75;;;2.35;;
23338;SDS011;11841;49.368;20.962;2023-05-02T01:42:19;6.70;;;2.88;;
23338;SDS011;11841;49.368;20.962;2023-05-02T01:45:06;4.15;;;2.15;;
23338;SDS011;11841;49.368;20.962;2023-05-02T01:47:53;4.97;;;2.50;;
23338;SDS011;11841;49.368;20.962;2023-05-02T01:50:38;2.92;;;2.15;;
23338;SDS011;11841;49.368;20.962;2023-05-02T01:53:27;8.23;;;2.40;;
23338;SDS011;11841;49.368;20.962;2023-05-02T01:56:17;13.95;;;2.80;;
23338;SDS011;11841;49.368;20.962;2023-05-02T01:59:04;5.60;;;2.60;;
23338;SDS011;11841;49.368;20.962;2023-05-02T02:01:52;3.40;;;2.42;;
23338;SDS011;11841;49.368;20.962;2023-05-02T02:04:39;3.65;;;2.25;;
23338;SDS011;11841;49.368;20.962;2023-05-02T02:07:26;6.03;;;3.03;;
23338;SDS011;11841;49.368;20.962;2023-05-02T02:10:12;4.47;;;2.90;;
23338;SDS011;11841;49.368;20.962;2023-05-02T02:13:00;8.02;;;2.85;;
23338;SDS011;11841;49.368;20.962;2023-05-02T02:15:51;3.35;;;2.47;;
23338;SDS011;11841;49.368;20.962;2023-05-02T02:18:41;5.43;;;2.42;;
23338;SDS011;11841;49.368;20.962;2023-05-02T02:21:29;3.97;;;2.40;;
23338;SDS011;11841;49.368;20.962;2023-05-02T02:24:16;6.97;;;3.35;;
23338;SDS011;11841;49.368;20.962;2023-05-02T02:27:04;7.05;;;3.13;;
23338;SDS011;11841;49.368;20.962;2023-05-02T02:29:50;3.10;;;2.35;;
23338;SDS011;11841;49.368;20.962;2023-05-02T02:32:35;5.00;;;2.63;;
23338;SDS011;11841;49.368;20.962;2023-05-02T02:35:21;3.67;;;2.22;;
23338;SDS011;11841;49.368;20.962;2023-05-02T02:38:15;6.15;;;2.50;;
23338;SDS011;11841;49.368;20.962;2023-05-02T02:47:29;3.83;;;2.33;;
23338;SDS011;11841;49.368;20.962;2023-05-02T02:50:19;3.83;;;2.30;;
23338;SDS011;11841;49.368;20.962;2023-05-02T02:53:17;5.05;;;2.10;;
23338;SDS011;11841;49.368;20.962;2023-05-02T02:56:12;5.13;;;2.55;;
23338;SDS011;11841;49.368;20.962;2023-05-02T02:59:04;2.92;;;1.98;;
23338;SDS011;11841;49.368;20.962;2023-05-02T03:02:08;5.55;;;2.60;;
23338;SDS011;11841;49.368;20.962;2023-05-02T03:04:59;4.65;;;2.55;;
23338;SDS011;11841;49.368;20.962;2023-05-02T03:07:46;7.40;;;2.55;;
23338;SDS011;11841;49.368;20.962;2023-05-02T03:10:31;4.60;;;2.72;;
23338;SDS011;11841;49.368;20.962;2023-05-02T03:13:17;12.20;;;3.47;;
23338;SDS011;11841;49.368;20.962;2023-05-02T03:19:15;6.28;;;2.50;;
23338;SDS011;11841;49.368;20.962;2023-05-02T03:22:00;5.00;;;2.58;;
23338;SDS011;11841;49.368;20.962;2023-05-02T03:24:45;8.45;;;3.22;;
23338;SDS011;11841;49.368;20.962;2023-05-02T03:27:31;9.07;;;3.20;;
23338;SDS011;11841;49.368;20.962;2023-05-02T03:30:16;4.88;;;2.25;;
23338;SDS011;11841;49.368;20.962;2023-05-02T03:33:01;5.95;;;2.83;;
23338;SDS011;11841;49.368;20.962;2023-05-02T03:35:48;4.70;;;2.92;;
23338;SDS011;11841;49.368;20.962;2023-05-02T03:38:33;5.03;;;3.13;;
23338;SDS011;11841;49.368;20.962;2023-05-02T03:41:19;6.97;;;3.50;;
23338;SDS011;11841;49.368;20.962;2023-05-02T03:44:04;7.32;;;3.50;;
23338;SDS011;11841;49.368;20.962;2023-05-02T03:46:49;7.70;;;4.88;;
23338;SDS011;11841;49.368;20.962;2023-05-02T03:49:35;6.32;;;3.72;;
23338;SDS011;11841;49.368;20.962;2023-05-02T03:52:20;4.97;;;2.95;;
23338;SDS011;11841;49.368;20.962;2023-05-02T03:55:06;6.18;;;2.58;;
23338;SDS011;11841;49.368;20.962;2023-05-02T03:57:51;5.72;;;2.90;;
23338;SDS011;11841;49.368;20.962;2023-05-02T04:00:37;6.13;;;2.85;;
23338;SDS011;11841;49.368;20.962;2023-05-02T04:03:22;5.35;;;3.40;;
23338;SDS011;11841;49.368;20.962;2023-05-02T04:06:08;5.63;;;2.90;;
23338;SDS011;11841;49.368;20.962;2023-05-02T04:08:53;5.50;;;3.50;;
23338;SDS011;11841;49.368;20.962;2023-05-02T04:11:38;5.35;;;3.45;;
23338;SDS011;11841;49.368;20.962;2023-05-02T04:14:24;5.07;;;3.45;;
23338;SDS011;11841;49.368;20.962;2023-05-02T04:17:09;5.88;;;3.00;;
23338;SDS011;11841;49.368;20.962;2023-05-02T04:19:54;5.30;;;3.17;;
23338;SDS011;11841;49.368;20.962;2023-05-02T04:22:40;3.67;;;2.83;;
23338;SDS011;11841;49.368;20.962;2023-05-02T04:25:26;7.68;;;3.78;;
23338;SDS011;11841;49.368;20.962;2023-05-02T04:28:11;8.18;;;3.88;;
23338;SDS011;11841;49.368;20.962;2023-05-02T04:30:56;8.00;;;3.95;;
23338;SDS011;11841;49.368;20.962;2023-05-02T04:33:42;6.45;;;3.58;;
23338;SDS011;11841;49.368;20.962;2023-05-02T04:36:27;7.60;;;4.03;;
23338;SDS011;11841;49.368;20.962;2023-05-02T04:39:12;4.80;;;3.53;;
23338;SDS011;11841;49.368;20.962;2023-05-02T04:41:58;6.28;;;4.15;;
23338;SDS011;11841;49.368;20.962;2023-05-02T04:44:43;5.03;;;3.00;;
23338;SDS011;11841;49.368;20.962;2023-05-02T04:47:28;7.90;;;3.85;;
23338;SDS011;11841;49.368;20.962;2023-05-02T04:50:14;5.40;;;3.03;;
23338;SDS011;11841;49.368;20.962;2023-05-02T04:52:59;3.90;;;2.80;;
23338;SDS011;11841;49.368;20.962;2023-05-02T04:55:45;6.70;;;4.05;;
23338;SDS011;11841;49.368;20.962;2023-05-02T04:58:30;7.68;;;4.68;;
23338;SDS011;11841;49.368;20.962;2023-05-02T05:01:15;12.70;;;5.22;;
23338;SDS011;11841;49.368;20.962;2023-05-02T05:04:02;8.98;;;5.28;;
23338;SDS011;11841;49.368;20.962;2023-05-02T05:06:47;7.78;;;5.00;;
23338;SDS011;11841;49.368;20.962;2023-05-02T05:09:33;6.82;;;3.75;;
23338;SDS011;11841;49.368;20.962;2023-05-02T05:12:18;7.93;;;4.80;;
23338;SDS011;11841;49.368;20.962;2023-05-02T05:15:04;10.60;;;4.88;;
23338;SDS011;11841;49.368;20.962;2023-05-02T05:17:50;9.93;;;4.32;;
23338;SDS011;11841;49.368;20.962;2023-05-02T05:20:35;8.20;;;4.60;;
23338;SDS011;11841;49.368;20.962;2023-05-02T05:23:21;11.27;;;5.00;;
23338;SDS011;11841;49.368;20.962;2023-05-02T05:26:13;9.48;;;4.32;;
23338;SDS011;11841;49.368;20.962;2023-05-02T05:28:59;10.73;;;4.70;;
23338;SDS011;11841;49.368;20.962;2023-05-02T05:31:44;10.70;;;4.25;;
23338;SDS011;11841;49.368;20.962;2023-05-02T05:34:30;7.95;;;4.72;;
23338;SDS011;11841;49.368;20.962;2023-05-02T05:37:15;9.38;;;5.15;;
23338;SDS011;11841;49.368;20.962;2023-05-02T05:40:00;8.52;;;4.22;;
23338;SDS011;11841;49.368;20.962;2023-05-02T05:42:46;7.45;;;4.00;;
23338;SDS011;11841;49.368;20.962;2023-05-02T05:45:31;4.60;;;3.78;;
23338;SDS011;11841;49.368;20.962;2023-05-02T05:48:17;10.38;;;4.25;;
23338;SDS011;11841;49.368;20.962;2023-05-02T05:51:05;8.00;;;5.35;;
23338;SDS011;11841;49.368;20.962;2023-05-02T05:53:50;8.15;;;3.97;;
23338;SDS011;11841;49.368;20.962;2023-05-02T05:56:36;7.93;;;4.05;;
23338;SDS011;11841;49.368;20.962;2023-05-02T05:59:22;10.20;;;4.00;;
23338;SDS011;11841;49.368;20.962;2023-05-02T06:02:07;8.45;;;4.53;;
23338;SDS011;11841;49.368;20.962;2023-05-02T06:04:52;10.95;;;3.53;;
23338;SDS011;11841;49.368;20.962;2023-05-02T06:07:38;6.22;;;4.30;;
23338;SDS011;11841;49.368;20.962;2023-05-02T06:10:23;6.05;;;3.60;;
23338;SDS011;11841;49.368;20.962;2023-05-02T06:13:08;7.35;;;5.07;;
23338;SDS011;11841;49.368;20.962;2023-05-02T06:15:54;6.00;;;3.53;;
23338;SDS011;11841;49.368;20.962;2023-05-02T06:18:40;5.50;;;2.95;;
23338;SDS011;11841;49.368;20.962;2023-05-02T06:21:25;5.68;;;3.30;;
23338;SDS011;11841;49.368;20.962;2023-05-02T06:24:10;6.70;;;2.97;;
23338;SDS011;11841;49.368;20.962;2023-05-02T06:26:56;5.85;;;3.33;;
23338;SDS011;11841;49.368;20.962;2023-05-02T06:29:42;6.97;;;4.25;;
23338;SDS011;11841;49.368;20.962;2023-05-02T06:32:31;10.32;;;3.25;;
23338;SDS011;11841;49.368;20.962;2023-05-02T06:35:16;8.23;;;3.28;;
23338;SDS011;11841;49.368;20.962;2023-05-02T06:38:02;4.97;;;3.10;;
23338;SDS011;11841;49.368;20.962;2023-05-02T06:40:47;5.32;;;2.78;;
23338;SDS011;11841;49.368;20.962;2023-05-02T06:43:33;8.38;;;3.45;;
23338;SDS011;11841;49.368;20.962;2023-05-02T06:46:18;6.72;;;3.15;;
23338;SDS011;11841;49.368;20.962;2023-05-02T06:49:04;8.55;;;2.72;;
23338;SDS011;11841;49.368;20.962;2023-05-02T06:51:50;8.18;;;3.08;;
23338;SDS011;11841;49.368;20.962;2023-05-02T06:54:35;8.20;;;3.22;;
23338;SDS011;11841;49.368;20.962;2023-05-02T06:57:20;8.98;;;3.60;;
23338;SDS011;11841;49.368;20.962;2023-05-02T07:00:06;5.70;;;3.08;;
23338;SDS011;11841;49.368;20.962;2023-05-02T07:02:52;4.72;;;3.42;;
23338;SDS011;11841;49.368;20.962;2023-05-02T07:05:37;14.70;;;6.60;;
23338;SDS011;11841;49.368;20.962;2023-05-02T07:08:23;71.05;;;13.77;;
23338;SDS011;11841;49.368;20.962;2023-05-02T07:11:08;20.63;;;7.00;;
23338;SDS011;11841;49.368;20.962;2023-05-02T07:13:54;6.20;;;3.53;;
23338;SDS011;11841;49.368;20.962;2023-05-02T07:16:39;5.53;;;3.15;;
23338;SDS011;11841;49.368;20.962;2023-05-02T07:19:24;10.52;;;2.90;;
23338;SDS011;11841;49.368;20.962;2023-05-02T07:22:10;10.15;;;3.25;;
23338;SDS011;11841;49.368;20.962;2023-05-02T07:24:59;3.47;;;3.10;;
23338;SDS011;11841;49.368;20.962;2023-05-02T07:27:45;7.43;;;3.25;;
23338;SDS011;11841;49.368;20.962;2023-05-02T07:30:31;5.70;;;2.70;;
23338;SDS011;11841;49.368;20.962;2023-05-02T07:33:16;9.02;;;3.00;;
23338;SDS011;11841;49.368;20.962;2023-05-02T07:36:01;6.70;;;2.75;;
23338;SDS011;11841;49.368;20.962;2023-05-02T07:38:46;4.70;;;2.33;;
23338;SDS011;11841;49.368;20.962;2023-05-02T07:41:32;5.80;;;3.15;;
23338;SDS011;11841;49.368;20.962;2023-05-02T07:44:18;3.78;;;3.22;;
23338;SDS011;11841;49.368;20.962;2023-05-02T07:47:03;6.10;;;2.63;;
23338;SDS011;11841;49.368;20.962;2023-05-02T07:49:55;4.20;;;2.38;;
23338;SDS011;11841;49.368;20.962;2023-05-02T07:52:40;3.85;;;2.55;;
23338;SDS011;11841;49.368;20.962;2023-05-02T07:55:25;4.70;;;2.70;;
23338;SDS011;11841;49.368;20.962;2023-05-02T07:58:11;4.07;;;2.83;;
23338;SDS011;11841;49.368;20.962;2023-05-02T08:00:57;4.18;;;2.92;;
23338;SDS011;11841;49.368;20.962;2023-05-02T08:03:43;4.13;;;3.20;;
23338;SDS011;11841;49.368;20.962;2023-05-02T08:06:29;4.47;;;2.92;;
23338;SDS011;11841;49.368;20.962;2023-05-02T08:09:14;5.55;;;2.70;;
23338;SDS011;11841;49.368;20.962;2023-05-02T08:12:00;3.60;;;2.90;;
23338;SDS011;11841;49.368;20.962;2023-05-02T08:14:47;5.88;;;2.75;;
23338;SDS011;11841;49.368;20.962;2023-05-02T08:17:32;5.13;;;3.08;;
23338;SDS011;11841;49.368;20.962;2023-05-02T08:20:18;10.30;;;3.47;;
23338;SDS011;11841;49.368;20.962;2023-05-02T08:23:03;7.05;;;3.50;;
23338;SDS011;11841;49.368;20.962;2023-05-02T08:25:49;4.00;;;2.70;;
23338;SDS011;11841;49.368;20.962;2023-05-02T08:28:34;5.97;;;3.20;;
23338;SDS011;11841;49.368;20.962;2023-05-02T08:31:20;5.97;;;2.53;;
23338;SDS011;11841;49.368;20.962;2023-05-02T08:34:05;5.97;;;3.03;;
23338;SDS011;11841;49.368;20.962;2023-05-02T08:36:51;5.88;;;3.20;;
23338;SDS011;11841;49.368;20.962;2023-05-02T08:39:37;4.70;;;2.83;;
23338;SDS011;11841;49.368;20.962;2023-05-02T08:42:22;6.90;;;3.13;;
23338;SDS011;11841;49.368;20.962;2023-05-02T08:45:09;4.88;;;3.13;;
23338;SDS011;11841;49.368;20.962;2023-05-02T08:48:00;3.85;;;2.50;;
23338;SDS011;11841;49.368;20.962;2023-05-02T08:50:46;3.83;;;2.55;;
23338;SDS011;11841;49.368;20.962;2023-05-02T08:53:33;4.75;;;2.50;;
23338;SDS011;11841;49.368;20.962;2023-05-02T08:56:19;4.80;;;2.80;;
23338;SDS011;11841;49.368;20.962;2023-05-02T08:59:05;3.65;;;2.47;;
23338;SDS011;11841;49.368;20.962;2023-05-02T09:01:51;5.28;;;2.28;;
23338;SDS011;11841;49.368;20.962;2023-05-02T09:04:43;4.72;;;3.03;;
23338;SDS011;11841;49.368;20.962;2023-05-02T09:07:41;5.63;;;2.87;;
23338;SDS011;11841;49.368;20.962;2023-05-02T09:10:29;3.17;;;2.10;;
23338;SDS011;11841;49.368;20.962;2023-05-02T09:16:21;4.63;;;2.58;;
23338;SDS011;11841;49.368;20.962;2023-05-02T09:19:08;2.45;;;2.10;;
23338;SDS011;11841;49.368;20.962;2023-05-02T09:22:00;8.38;;;2.60;;
23338;SDS011;11841;49.368;20.962;2023-05-02T09:24:47;5.65;;;2.47;;
23338;SDS011;11841;49.368;20.962;2023-05-02T09:27:54;3.75;;;2.75;;
23338;SDS011;11841;49.368;20.962;2023-05-02T09:30:40;3.75;;;2.50;;
23338;SDS011;11841;49.368;20.962;2023-05-02T09:33:27;5.68;;;2.33;;
23338;SDS011;11841;49.368;20.962;2023-05-02T09:36:13;6.55;;;2.70;;
23338;SDS011;11841;49.368;20.962;2023-05-02T09:39:07;2.60;;;2.25;;
23338;SDS011;11841;49.368;20.962;2023-05-02T09:41:55;7.95;;;2.60;;
23338;SDS011;11841;49.368;20.962;2023-05-02T09:44:42;2.75;;;2.35;;
23338;SDS011;11841;49.368;20.962;2023-05-02T09:47:27;6.90;;;2.30;;
23338;SDS011;11841;49.368;20.962;2023-05-02T09:50:32;3.70;;;2.58;;
23338;SDS011;11841;49.368;20.962;2023-05-02T09:56:11;3.53;;;2.45;;
23338;SDS011;11841;49.368;20.962;2023-05-02T09:59:12;6.20;;;2.40;;
23338;SDS011;11841;49.368;20.962;2023-05-02T10:02:03;4.13;;;2.60;;
23338;SDS011;11841;49.368;20.962;2023-05-02T10:04:50;3.92;;;2.47;;
23338;SDS011;11841;49.368;20.962;2023-05-02T10:07:38;5.10;;;2.63;;
23338;SDS011;11841;49.368;20.962;2023-05-02T10:10:24;2.60;;;2.00;;
23338;SDS011;11841;49.368;20.962;2023-05-02T10:13:09;2.97;;;2.28;;
23338;SDS011;11841;49.368;20.962;2023-05-02T10:16:01;10.38;;;3.35;;
23338;SDS011;11841;49.368;20.962;2023-05-02T10:19:08;51.95;;;5.95;;
23338;SDS011;11841;49.368;20.962;2023-05-02T10:21:57;3.67;;;2.28;;
23338;SDS011;11841;49.368;20.962;2023-05-02T10:24:43;2.47;;;2.25;;
23338;SDS011;11841;49.368;20.962;2023-05-02T10:27:29;2.58;;;2.00;;
23338;SDS011;11841;49.368;20.962;2023-05-02T10:30:16;8.35;;;3.08;;
23338;SDS011;11841;49.368;20.962;2023-05-02T10:33:01;6.20;;;2.25;;
23338;SDS011;11841;49.368;20.962;2023-05-02T10:35:47;2.72;;;2.25;;
23338;SDS011;11841;49.368;20.962;2023-05-02T10:38:32;3.28;;;2.75;;
23338;SDS011;11841;49.368;20.962;2023-05-02T10:41:20;4.00;;;3.10;;
23338;SDS011;11841;49.368;20.962;2023-05-02T10:44:10;8.82;;;2.67;;
23338;SDS011;11841;49.368;20.962;2023-05-02T10:46:55;4.82;;;2.30;;
23338;SDS011;11841;49.368;20.962;2023-05-02T10:49:55;3.90;;;2.50;;
23338;SDS011;11841;49.368;20.962;2023-05-02T10:52:41;3.97;;;2.63;;
23338;SDS011;11841;49.368;20.962;2023-05-02T10:55:26;3.33;;;2.53;;
23338;SDS011;11841;49.368;20.962;2023-05-02T11:01:27;4.28;;;2.55;;
23338;SDS011;11841;49.368;20.962;2023-05-02T11:04:14;4.13;;;2.83;;
23338;SDS011;11841;49.368;20.962;2023-05-02T11:09:45;5.93;;;2.58;;
23338;SDS011;11841;49.368;20.962;2023-05-02T11:18:24;3.60;;;2.78;;
23338;SDS011;11841;49.368;20.962;2023-05-02T11:21:23;6.32;;;3.00;;
23338;SDS011;11841;49.368;20.962;2023-05-02T11:30:16;4.15;;;2.83;;
23338;SDS011;11841;49.368;20.962;2023-05-02T11:33:21;2.95;;;2.35;;
23338;SDS011;11841;49.368;20.962;2023-05-02T11:36:07;6.70;;;2.53;;
23338;SDS011;11841;49.368;20.962;2023-05-02T11:38:52;4.90;;;2.67;;
23338;SDS011;11841;49.368;20.962;2023-05-02T11:41:40;2.38;;;2.17;;
23338;SDS011;11841;49.368;20.962;2023-05-02T11:44:26;6.18;;;2.55;;
23338;SDS011;11841;49.368;20.962;2023-05-02T11:47:12;3.40;;;2.40;;
23338;SDS011;11841;49.368;20.962;2023-05-02T11:49:57;3.35;;;2.67;;
23338;SDS011;11841;49.368;20.962;2023-05-02T11:52:46;4.70;;;2.78;;
23338;SDS011;11841;49.368;20.962;2023-05-02T11:55:31;3.33;;;2.35;;
23338;SDS011;11841;49.368;20.962;2023-05-02T11:58:18;4.78;;;2.60;;
23338;SDS011;11841;49.368;20.962;2023-05-02T12:01:10;3.15;;;2.30;;
23338;SDS011;11841;49.368;20.962;2023-05-02T12:04:04;4.78;;;2.65;;
23338;SDS011;11841;49.368;20.962;2023-05-02T12:06:55;3.58;;;2.40;;
23338;SDS011;11841;49.368;20.962;2023-05-02T12:09:51;8.57;;;2.45;;
23338;SDS011;11841;49.368;20.962;2023-05-02T12:12:37;2.97;;;2.67;;
23338;SDS011;11841;49.368;20.962;2023-05-02T12:15:24;4.13;;;2.55;;
23338;SDS011;11841;49.368;20.962;2023-05-02T12:18:09;5.70;;;2.58;;
23338;SDS011;11841;49.368;20.962;2023-05-02T12:20:55;4.40;;;2.58;;
23338;SDS011;11841;49.368;20.962;2023-05-02T12:23:40;3.42;;;2.58;;
23338;SDS011;11841;49.368;20.962;2023-05-02T12:26:27;3.83;;;2.58;;
23338;SDS011;11841;49.368;20.962;2023-05-02T12:29:16;6.88;;;2.60;;
23338;SDS011;11841;49.368;20.962;2023-05-02T12:32:02;7.70;;;2.95;;
23338;SDS011;11841;49.368;20.962;2023-05-02T12:34:47;4.15;;;2.70;;
23338;SDS011;11841;49.368;20.962;2023-05-02T12:37:33;5.30;;;2.38;;
23338;SDS011;11841;49.368;20.962;2023-05-02T12:40:19;2.95;;;2.17;;
23338;SDS011;11841;49.368;20.962;2023-05-02T12:43:05;4.35;;;2.38;;
23338;SDS011;11841;49.368;20.962;2023-05-02T12:46:09;3.13;;;2.08;;
23338;SDS011;11841;49.368;20.962;2023-05-02T12:49:07;3.10;;;2.30;;
23338;SDS011;11841;49.368;20.962;2023-05-02T12:51:54;5.05;;;2.50;;
23338;SDS011;11841;49.368;20.962;2023-05-02T12:54:40;2.97;;;2.55;;
23338;SDS011;11841;49.368;20.962;2023-05-02T12:57:25;3.75;;;2.85;;
23338;SDS011;11841;49.368;20.962;2023-05-02T13:00:11;4.63;;;2.33;;
23338;SDS011;11841;49.368;20.962;2023-05-02T13:02:57;5.07;;;2.50;;
23338;SDS011;11841;49.368;20.962;2023-05-02T13:05:43;9.50;;;2.50;;
23338;SDS011;11841;49.368;20.962;2023-05-02T13:08:28;4.32;;;2.58;;
23338;SDS011;11841;49.368;20.962;2023-05-02T13:11:14;9.48;;;2.35;;
23338;SDS011;11841;49.368;20.962;2023-05-02T13:13:59;4.30;;;2.33;;
23338;SDS011;11841;49.368;20.962;2023-05-02T13:16:48;5.53;;;2.22;;
23338;SDS011;11841;49.368;20.962;2023-05-02T13:19:33;2.40;;;2.10;;
23338;SDS011;11841;49.368;20.962;2023-05-02T13:22:19;3.45;;;2.38;;
23338;SDS011;11841;49.368;20.962;2023-05-02T13:25:04;3.80;;;2.30;;
23338;SDS011;11841;49.368;20.962;2023-05-02T13:27:50;5.50;;;2.53;;
23338;SDS011;11841;49.368;20.962;2023-05-02T13:30:36;5.68;;;4.05;;
23338;SDS011;11841;49.368;20.962;2023-05-02T13:33:21;4.65;;;3.35;;
23338;SDS011;11841;49.368;20.962;2023-05-02T13:36:07;2.70;;;2.10;;
23338;SDS011;11841;49.368;20.962;2023-05-02T13:38:52;3.58;;;3.00;;
23338;SDS011;11841;49.368;20.962;2023-05-02T13:41:37;10.80;;;2.60;;
23338;SDS011;11841;49.368;20.962;2023-05-02T13:44:23;3.20;;;2.30;;
23338;SDS011;11841;49.368;20.962;2023-05-02T13:47:08;3.63;;;2.67;;
23338;SDS011;11841;49.368;20.962;2023-05-02T13:49:53;2.83;;;2.58;;
23338;SDS011;11841;49.368;20.962;2023-05-02T13:52:39;3.00;;;2.70;;
23338;SDS011;11841;49.368;20.962;2023-05-02T13:55:25;3.70;;;2.35;;
23338;SDS011;11841;49.368;20.962;2023-05-02T13:58:10;6.35;;;2.40;;
23338;SDS011;11841;49.368;20.962;2023-05-02T14:00:56;5.68;;;2.65;;
23338;SDS011;11841;49.368;20.962;2023-05-02T14:03:41;6.28;;;2.88;;
23338;SDS011;11841;49.368;20.962;2023-05-02T14:06:27;2.92;;;2.65;;
23338;SDS011;11841;49.368;20.962;2023-05-02T14:09:13;2.65;;;2.45;;
23338;SDS011;11841;49.368;20.962;2023-05-02T14:11:59;6.38;;;2.67;;
23338;SDS011;11841;49.368;20.962;2023-05-02T14:14:45;2.80;;;2.40;;
23338;SDS011;11841;49.368;20.962;2023-05-02T14:29:40;5.03;;;3.08;;
23338;SDS011;11841;49.368;20.962;2023-05-02T14:32:27;9.40;;;3.42;;
23338;SDS011;11841;49.368;20.962;2023-05-02T14:35:12;8.45;;;2.90;;
23338;SDS011;11841;49.368;20.962;2023-05-02T14:37:58;5.32;;;2.67;;
23338;SDS011;11841;49.368;20.962;2023-05-02T14:40:43;6.20;;;2.58;;
23338;SDS011;11841;49.368;20.962;2023-05-02T14:43:29;5.05;;;2.75;;
23338;SDS011;11841;49.368;20.962;2023-05-02T14:46:14;4.57;;;3.05;;
23338;SDS011;11841;49.368;20.962;2023-05-02T14:48:59;3.33;;;2.53;;
23338;SDS011;11841;49.368;20.962;2023-05-02T14:51:45;28.23;;;9.88;;
23338;SDS011;11841;49.368;20.962;2023-05-02T14:54:32;14.80;;;4.43;;
23338;SDS011;11841;49.368;20.962;2023-05-02T14:57:17;5.50;;;2.50;;
23338;SDS011;11841;49.368;20.962;2023-05-02T15:00:03;5.38;;;2.92;;
23338;SDS011;11841;49.368;20.962;2023-05-02T15:02:52;5.22;;;2.53;;
23338;SDS011;11841;49.368;20.962;2023-05-02T15:05:37;4.15;;;2.75;;
23338;SDS011;11841;49.368;20.962;2023-05-02T15:08:23;8.75;;;3.72;;
23338;SDS011;11841;49.368;20.962;2023-05-02T15:11:09;3.20;;;2.55;;
23338;SDS011;11841;49.368;20.962;2023-05-02T15:13:55;2.80;;;2.38;;
23338;SDS011;11841;49.368;20.962;2023-05-02T15:16:43;6.13;;;2.17;;
23338;SDS011;11841;49.368;20.962;2023-05-02T15:30:38;4.70;;;3.17;;
23338;SDS011;11841;49.368;20.962;2023-05-02T15:33:23;6.43;;;3.65;;
23338;SDS011;11841;49.368;20.962;2023-05-02T15:36:09;8.35;;;3.20;;
23338;SDS011;11841;49.368;20.962;2023-05-02T15:38:57;4.85;;;3.40;;
23338;SDS011;11841;49.368;20.962;2023-05-02T15:41:42;6.78;;;3.53;;
23338;SDS011;11841;49.368;20.962;2023-05-02T15:44:34;7.93;;;4.00;;
23338;SDS011;11841;49.368;20.962;2023-05-02T15:47:21;6.28;;;4.38;;
23338;SDS011;11841;49.368;20.962;2023-05-02T15:50:07;4.82;;;3.45;;
23338;SDS011;11841;49.368;20.962;2023-05-02T15:52:54;8.88;;;3.90;;
23338;SDS011;11841;49.368;20.962;2023-05-02T15:55:40;7.72;;;3.78;;
23338;SDS011;11841;49.368;20.962;2023-05-02T15:58:27;6.72;;;3.58;;
23338;SDS011;11841;49.368;20.962;2023-05-02T16:01:12;6.35;;;4.18;;
23338;SDS011;11841;49.368;20.962;2023-05-02T16:03:57;9.23;;;4.00;;
23338;SDS011;11841;49.368;20.962;2023-05-02T16:06:43;11.57;;;6.72;;
23338;SDS011;11841;49.368;20.962;2023-05-02T16:09:28;10.65;;;6.65;;
23338;SDS011;11841;49.368;20.962;2023-05-02T16:12:15;13.73;;;7.53;;
23338;SDS011;11841;49.368;20.962;2023-05-02T16:15:00;16.15;;;6.20;;
23338;SDS011;11841;49.368;20.962;2023-05-02T16:17:48;20.10;;;6.78;;
23338;SDS011;11841;49.368;20.962;2023-05-02T16:20:34;9.55;;;5.30;;
23338;SDS011;11841;49.368;20.962;2023-05-02T16:23:20;10.10;;;6.10;;
23338;SDS011;11841;49.368;20.962;2023-05-02T16:26:05;12.07;;;5.78;;
23338;SDS011;11841;49.368;20.962;2023-05-02T16:28:51;9.40;;;5.35;;
23338;SDS011;11841;49.368;20.962;2023-05-02T16:31:36;10.38;;;5.10;;
23338;SDS011;11841;49.368;20.962;2023-05-02T16:34:21;7.78;;;4.50;;
23338;SDS011;11841;49.368;20.962;2023-05-02T16:37:06;6.75;;;4.22;;
23338;SDS011;11841;49.368;20.962;2023-05-02T16:39:52;5.90;;;4.10;;
23338;SDS011;11841;49.368;20.962;2023-05-02T16:42:37;11.05;;;4.57;;
23338;SDS011;11841;49.368;20.962;2023-05-02T16:45:24;6.03;;;3.92;;
23338;SDS011;11841;49.368;20.962;2023-05-02T16:48:09;7.70;;;3.78;;
23338;SDS011;11841;49.368;20.962;2023-05-02T16:50:54;7.03;;;4.30;;
23338;SDS011;11841;49.368;20.962;2023-05-02T16:53:41;5.30;;;3.95;;
23338;SDS011;11841;49.368;20.962;2023-05-02T16:56:27;15.63;;;4.40;;
23338;SDS011;11841;49.368;20.962;2023-05-02T16:59:13;8.38;;;5.30;;
23338;SDS011;11841;49.368;20.962;2023-05-02T17:01:58;4.50;;;3.65;;
23338;SDS011;11841;49.368;20.962;2023-05-02T17:04:43;8.32;;;4.43;;
23338;SDS011;11841;49.368;20.962;2023-05-02T17:07:29;15.52;;;9.75;;
23338;SDS011;11841;49.368;20.962;2023-05-02T17:10:14;21.48;;;10.57;;
23338;SDS011;11841;49.368;20.962;2023-05-02T17:13:00;33.55;;;10.07;;
23338;SDS011;11841;49.368;20.962;2023-05-02T17:15:45;17.48;;;9.68;;
23338;SDS011;11841;49.368;20.962;2023-05-02T17:18:30;15.90;;;8.35;;
23338;SDS011;11841;49.368;20.962;2023-05-02T17:21:17;12.73;;;7.55;;
23338;SDS011;11841;49.368;20.962;2023-05-02T17:24:03;14.80;;;8.07;;
23338;SDS011;11841;49.368;20.962;2023-05-02T17:26:50;47.17;;;22.08;;
23338;SDS011;11841;49.368;20.962;2023-05-02T17:29:36;30.65;;;14.65;;
23338;SDS011;11841;49.368;20.962;2023-05-02T17:32:22;43.33;;;19.63;;
23338;SDS011;11841;49.368;20.962;2023-05-02T17:35:07;52.88;;;24.77;;